sensor_id;sensor_type;location;lat;lon;timestamp;pressure;altitude;pressure_sealevel;temperature;humidity
52653;BME280;39353;42.864;12.014;2023-01-26T00:02:39;97251.41;;;21.35;49.32
52653;BME280;39353;42.864;12.014;2023-01-26T00:05:08;97253.83;;;21.31;49.40
52653;BME280;39353;42.864;12.014;2023-01-26T00:07:35;97257.13;;;21.27;49.44
52653;BME280;39353;42.864;12.014;2023-01-26T00:10:16;97256.30;;;21.23;49.62
52653;BME280;39353;42.864;12.014;2023-01-26T00:12:43;97254.95;;;21.21;49.51
52653;BME280;39353;42.864;12.014;2023-01-26T00:15:23;97246.21;;;21.19;49.67
52653;BME280;39353;42.864;12.014;2023-01-26T00:18:04;97240.30;;;21.16;49.49
52653;BME280;39353;42.864;12.014;2023-01-26T00:20:32;97240.17;;;21.13;49.58
52653;BME280;39353;42.864;12.014;2023-01-26T00:22:58;97237.27;;;21.10;49.68
52653;BME280;39353;42.864;12.014;2023-01-26T00:25:29;97233.92;;;21.08;49.62
52653;BME280;39353;42.864;12.014;2023-01-26T00:28:10;97235.23;;;21.05;49.69
52653;BME280;39353;42.864;12.014;2023-01-26T00:30:37;97238.92;;;21.02;49.72
52653;BME280;39353;42.864;12.014;2023-01-26T00:33:18;97237.70;;;20.99;49.83
52653;BME280;39353;42.864;12.014;2023-01-26T00:35:59;97235.54;;;20.95;49.76
52653;BME280;39353;42.864;12.014;2023-01-26T00:38:41;97227.05;;;20.92;49.80
52653;BME280;39353;42.864;12.014;2023-01-26T00:41:23;97225.23;;;20.89;49.75
52653;BME280;39353;42.864;12.014;2023-01-26T00:44:09;97220.92;;;20.87;49.79
52653;BME280;39353;42.864;12.014;2023-01-26T00:46:50;97219.55;;;20.85;49.89
52653;BME280;39353;42.864;12.014;2023-01-26T00:49:17;97219.89;;;20.83;49.96
52653;BME280;39353;42.864;12.014;2023-01-26T00:51:45;97218.20;;;20.81;49.90
52653;BME280;39353;42.864;12.014;2023-01-26T00:54:13;97211.11;;;20.79;49.97
52653;BME280;39353;42.864;12.014;2023-01-26T00:56:54;97211.90;;;20.78;49.97
52653;BME280;39353;42.864;12.014;2023-01-26T00:59:22;97216.10;;;20.75;50.06
52653;BME280;39353;42.864;12.014;2023-01-26T01:01:49;97214.48;;;20.74;50.01
52653;BME280;39353;42.864;12.014;2023-01-26T01:04:30;97212.66;;;20.72;50.00
52653;BME280;39353;42.864;12.014;2023-01-26T01:07:12;97211.67;;;20.70;50.08
52653;BME280;39353;42.864;12.014;2023-01-26T01:09:53;97209.37;;;20.67;50.02
52653;BME280;39353;42.864;12.014;2023-01-26T01:12:20;97200.95;;;20.65;50.02
52653;BME280;39353;42.864;12.014;2023-01-26T01:14:50;97200.33;;;20.63;50.16
52653;BME280;39353;42.864;12.014;2023-01-26T01:17:17;97195.02;;;20.61;50.00
52653;BME280;39353;42.864;12.014;2023-01-26T01:20:00;97189.73;;;20.59;49.92
52653;BME280;39353;42.864;12.014;2023-01-26T01:22:40;97186.36;;;20.57;50.01
52653;BME280;39353;42.864;12.014;2023-01-26T01:25:08;97185.33;;;20.56;50.10
52653;BME280;39353;42.864;12.014;2023-01-26T01:27:49;97178.64;;;20.54;50.02
52653;BME280;39353;42.864;12.014;2023-01-26T01:30:17;97172.60;;;20.52;50.27
52653;BME280;39353;42.864;12.014;2023-01-26T01:32:58;97177.11;;;20.51;50.21
52653;BME280;39353;42.864;12.014;2023-01-26T01:35:26;97181.48;;;20.50;50.27
52653;BME280;39353;42.864;12.014;2023-01-26T01:37:55;97178.48;;;20.48;50.20
52653;BME280;39353;42.864;12.014;2023-01-26T01:40:21;97175.71;;;20.46;50.21
52653;BME280;39353;42.864;12.014;2023-01-26T01:42:49;97165.92;;;20.45;50.18
52653;BME280;39353;42.864;12.014;2023-01-26T01:48:19;97176.65;;;20.41;50.35
52653;BME280;39353;42.864;12.014;2023-01-26T01:50:50;97174.33;;;20.39;50.33
52653;BME280;39353;42.864;12.014;2023-01-26T01:57:49;97179.88;;;20.35;50.11
52653;BME280;39353;42.864;12.014;2023-01-26T02:00:22;97174.54;;;20.33;50.19
52653;BME280;39353;42.864;12.014;2023-01-26T02:03:06;97174.52;;;20.30;50.28
52653;BME280;39353;42.864;12.014;2023-01-26T02:06:15;97167.84;;;20.29;50.34
52653;BME280;39353;42.864;12.014;2023-01-26T02:08:59;97169.67;;;20.27;50.29
52653;BME280;39353;42.864;12.014;2023-01-26T02:11:44;97171.61;;;20.26;50.33
52653;BME280;39353;42.864;12.014;2023-01-26T02:14:14;97170.98;;;20.24;50.30
52653;BME280;39353;42.864;12.014;2023-01-26T02:16:55;97166.75;;;20.23;50.39
52653;BME280;39353;42.864;12.014;2023-01-26T02:22:20;97151.84;;;20.19;50.18
52653;BME280;39353;42.864;12.014;2023-01-26T02:25:07;97151.35;;;20.18;50.27
52653;BME280;39353;42.864;12.014;2023-01-26T02:27:39;97151.71;;;20.17;50.36
52653;BME280;39353;42.864;12.014;2023-01-26T02:30:22;97151.39;;;20.15;50.51
52653;BME280;39353;42.864;12.014;2023-01-26T02:32:50;97146.55;;;20.14;50.32
52653;BME280;39353;42.864;12.014;2023-01-26T02:35:31;97147.98;;;20.13;50.43
52653;BME280;39353;42.864;12.014;2023-01-26T02:38:01;97140.48;;;20.11;50.43
52653;BME280;39353;42.864;12.014;2023-01-26T02:41:01;97133.48;;;20.10;50.50
52653;BME280;39353;42.864;12.014;2023-01-26T02:47:50;97128.18;;;20.05;50.49
52653;BME280;39353;42.864;12.014;2023-01-26T02:50:19;97129.83;;;20.04;50.45
52653;BME280;39353;42.864;12.014;2023-01-26T02:53:01;97119.95;;;20.01;50.58
52653;BME280;39353;42.864;12.014;2023-01-26T02:55:30;97118.55;;;19.99;50.59
52653;BME280;39353;42.864;12.014;2023-01-26T02:58:11;97109.69;;;19.98;50.76
52653;BME280;39353;42.864;12.014;2023-01-26T03:00:52;97104.05;;;19.95;50.76
52653;BME280;39353;42.864;12.014;2023-01-26T03:03:23;97096.91;;;19.95;50.54
52653;BME280;39353;42.864;12.014;2023-01-26T03:05:52;97091.93;;;19.94;50.65
52653;BME280;39353;42.864;12.014;2023-01-26T03:08:34;97088.68;;;19.92;50.72
52653;BME280;39353;42.864;12.014;2023-01-26T03:11:16;97080.29;;;19.90;50.63
52653;BME280;39353;42.864;12.014;2023-01-26T03:13:43;97074.06;;;19.88;50.70
52653;BME280;39353;42.864;12.014;2023-01-26T03:16:10;97073.52;;;19.87;50.77
52653;BME280;39353;42.864;12.014;2023-01-26T03:18:51;97065.92;;;19.85;50.77
52653;BME280;39353;42.864;12.014;2023-01-26T03:21:45;97065.11;;;19.82;50.75
52653;BME280;39353;42.864;12.014;2023-01-26T03:24:31;97066.70;;;19.83;50.77
52653;BME280;39353;42.864;12.014;2023-01-26T03:27:43;97061.11;;;19.81;50.74
52653;BME280;39353;42.864;12.014;2023-01-26T03:30:25;97052.95;;;19.79;50.68
52653;BME280;39353;42.864;12.014;2023-01-26T03:32:52;97049.52;;;19.79;50.83
52653;BME280;39353;42.864;12.014;2023-01-26T03:35:19;97046.56;;;19.78;50.75
52653;BME280;39353;42.864;12.014;2023-01-26T03:37:49;97047.87;;;19.78;50.84
52653;BME280;39353;42.864;12.014;2023-01-26T03:40:24;97037.72;;;19.76;50.83
52653;BME280;39353;42.864;12.014;2023-01-26T03:43:24;97038.50;;;19.74;50.87
52653;BME280;39353;42.864;12.014;2023-01-26T03:46:11;97039.61;;;19.73;50.85
52653;BME280;39353;42.864;12.014;2023-01-26T03:48:57;97034.62;;;19.71;50.81
52653;BME280;39353;42.864;12.014;2023-01-26T03:51:56;97032.02;;;19.70;50.74
52653;BME280;39353;42.864;12.014;2023-01-26T03:54:55;97024.51;;;19.70;50.74
52653;BME280;39353;42.864;12.014;2023-01-26T03:57:57;97015.00;;;19.69;50.69
52653;BME280;39353;42.864;12.014;2023-01-26T04:00:38;97014.19;;;19.67;50.75
52653;BME280;39353;42.864;12.014;2023-01-26T04:03:18;97011.39;;;19.66;50.79
52653;BME280;39353;42.864;12.014;2023-01-26T04:06:18;97011.90;;;19.65;50.69
52653;BME280;39353;42.864;12.014;2023-01-26T04:09:04;97011.33;;;19.64;50.82
52653;BME280;39353;42.864;12.014;2023-01-26T04:11:46;97008.48;;;19.63;50.86
52653;BME280;39353;42.864;12.014;2023-01-26T04:14:16;97000.48;;;19.61;50.82
52653;BME280;39353;42.864;12.014;2023-01-26T04:17:04;96997.77;;;19.60;50.85
52653;BME280;39353;42.864;12.014;2023-01-26T04:20:05;96992.33;;;19.58;50.75
52653;BME280;39353;42.864;12.014;2023-01-26T04:22:51;96984.42;;;19.57;50.88
52653;BME280;39353;42.864;12.014;2023-01-26T04:25:21;96981.39;;;19.56;50.84
52653;BME280;39353;42.864;12.014;2023-01-26T04:28:02;96979.57;;;19.55;50.93
52653;BME280;39353;42.864;12.014;2023-01-26T04:30:43;96977.60;;;19.54;50.97
52653;BME280;39353;42.864;12.014;2023-01-26T04:33:10;96966.06;;;19.53;50.84
52653;BME280;39353;42.864;12.014;2023-01-26T04:35:51;96965.70;;;19.52;51.01
52653;BME280;39353;42.864;12.014;2023-01-26T04:38:20;96957.81;;;19.49;50.97
52653;BME280;39353;42.864;12.014;2023-01-26T04:41:01;96962.58;;;19.49;50.98
52653;BME280;39353;42.864;12.014;2023-01-26T04:43:30;96957.92;;;19.47;50.96
52653;BME280;39353;42.864;12.014;2023-01-26T04:46:11;96956.82;;;19.46;50.97
52653;BME280;39353;42.864;12.014;2023-01-26T04:48:53;96952.08;;;19.46;50.94
52653;BME280;39353;42.864;12.014;2023-01-26T04:51:21;96955.73;;;19.46;50.93
52653;BME280;39353;42.864;12.014;2023-01-26T04:53:49;96952.60;;;19.45;50.85
52653;BME280;39353;42.864;12.014;2023-01-26T04:56:34;96952.95;;;19.44;50.98
52653;BME280;39353;42.864;12.014;2023-01-26T04:59:16;96949.20;;;19.43;51.02
52653;BME280;39353;42.864;12.014;2023-01-26T05:01:57;96954.41;;;19.42;51.01
52653;BME280;39353;42.864;12.014;2023-01-26T05:04:25;96952.62;;;19.41;51.04
52653;BME280;39353;42.864;12.014;2023-01-26T05:07:07;96946.89;;;19.40;51.04
52653;BME280;39353;42.864;12.014;2023-01-26T05:09:48;96948.71;;;19.39;50.97
52653;BME280;39353;42.864;12.014;2023-01-26T05:12:46;96938.14;;;19.38;50.96
52653;BME280;39353;42.864;12.014;2023-01-26T05:15:34;96939.69;;;19.37;50.99
52653;BME280;39353;42.864;12.014;2023-01-26T05:18:24;96935.60;;;19.37;50.99
52653;BME280;39353;42.864;12.014;2023-01-26T05:20:59;96935.52;;;19.36;51.00
52653;BME280;39353;42.864;12.014;2023-01-26T05:23:42;96938.93;;;19.35;50.97
52653;BME280;39353;42.864;12.014;2023-01-26T05:26:36;96936.77;;;19.34;51.01
52653;BME280;39353;42.864;12.014;2023-01-26T05:29:06;96937.27;;;19.31;51.05
52653;BME280;39353;42.864;12.014;2023-01-26T05:31:49;96939.90;;;19.31;50.96
52653;BME280;39353;42.864;12.014;2023-01-26T05:34:31;96946.73;;;19.30;51.03
52653;BME280;39353;42.864;12.014;2023-01-26T05:37:12;96949.80;;;19.29;51.12
52653;BME280;39353;42.864;12.014;2023-01-26T05:39:57;96955.29;;;19.29;51.09
52653;BME280;39353;42.864;12.014;2023-01-26T05:42:24;96953.79;;;19.28;51.01
52653;BME280;39353;42.864;12.014;2023-01-26T05:45:52;96966.16;;;19.26;51.06
52653;BME280;39353;42.864;12.014;2023-01-26T05:48:35;96965.32;;;19.26;51.00
52653;BME280;39353;42.864;12.014;2023-01-26T05:51:03;96965.04;;;19.25;51.10
52653;BME280;39353;42.864;12.014;2023-01-26T05:53:47;96960.86;;;19.24;50.99
52653;BME280;39353;42.864;12.014;2023-01-26T05:56:28;96961.92;;;19.23;51.06
52653;BME280;39353;42.864;12.014;2023-01-26T05:58:59;96961.27;;;19.23;50.96
52653;BME280;39353;42.864;12.014;2023-01-26T06:01:26;96957.27;;;19.22;50.96
52653;BME280;39353;42.864;12.014;2023-01-26T06:03:57;96958.85;;;19.21;51.08
52653;BME280;39353;42.864;12.014;2023-01-26T06:06:27;96955.70;;;19.20;51.01
52653;BME280;39353;42.864;12.014;2023-01-26T06:09:28;96948.93;;;19.19;51.07
52653;BME280;39353;42.864;12.014;2023-01-26T06:12:28;96947.34;;;19.18;51.11
52653;BME280;39353;42.864;12.014;2023-01-26T06:15:07;96948.20;;;19.16;51.06
52653;BME280;39353;42.864;12.014;2023-01-26T06:17:38;96951.48;;;19.16;51.07
52653;BME280;39353;42.864;12.014;2023-01-26T06:20:28;96949.17;;;19.16;51.05
52653;BME280;39353;42.864;12.014;2023-01-26T06:22:59;96946.08;;;19.15;51.05
52653;BME280;39353;42.864;12.014;2023-01-26T06:25:42;96952.26;;;19.13;51.11
52653;BME280;39353;42.864;12.014;2023-01-26T06:28:24;96949.96;;;19.13;51.15
52653;BME280;39353;42.864;12.014;2023-01-26T06:30:51;96947.08;;;19.13;50.97
52653;BME280;39353;42.864;12.014;2023-01-26T06:33:20;96948.02;;;19.12;51.13
52653;BME280;39353;42.864;12.014;2023-01-26T06:35:48;96944.64;;;19.10;51.13
52653;BME280;39353;42.864;12.014;2023-01-26T06:38:29;96949.80;;;19.09;51.09
52653;BME280;39353;42.864;12.014;2023-01-26T06:41:11;96947.96;;;19.08;51.22
52653;BME280;39353;42.864;12.014;2023-01-26T06:43:38;96945.35;;;19.08;51.13
52653;BME280;39353;42.864;12.014;2023-01-26T06:46:19;96945.49;;;19.05;51.13
52653;BME280;39353;42.864;12.014;2023-01-26T06:49:04;96944.80;;;18.98;49.37
52653;BME280;39353;42.864;12.014;2023-01-26T06:51:40;96949.64;;;18.97;50.48
52653;BME280;39353;42.864;12.014;2023-01-26T06:54:23;96955.83;;;18.97;50.68
52653;BME280;39353;42.864;12.014;2023-01-26T06:57:34;96958.70;;;18.98;50.77
52653;BME280;39353;42.864;12.014;2023-01-26T07:00:13;96955.04;;;18.97;50.75
52653;BME280;39353;42.864;12.014;2023-01-26T07:03:18;96958.46;;;18.97;50.79
52653;BME280;39353;42.864;12.014;2023-01-26T07:05:46;96957.05;;;18.97;50.92
52653;BME280;39353;42.864;12.014;2023-01-26T07:08:28;96957.42;;;18.97;50.94
52653;BME280;39353;42.864;12.014;2023-01-26T07:10:55;96954.50;;;18.97;50.80
52653;BME280;39353;42.864;12.014;2023-01-26T07:13:22;96953.54;;;18.96;50.97
52653;BME280;39353;42.864;12.014;2023-01-26T07:16:06;96953.71;;;18.95;50.98
52653;BME280;39353;42.864;12.014;2023-01-26T07:18:47;96955.71;;;18.95;50.97
52653;BME280;39353;42.864;12.014;2023-01-26T07:25:48;96955.46;;;18.94;50.97
52653;BME280;39353;42.864;12.014;2023-01-26T07:28:31;96953.21;;;18.94;50.98
52653;BME280;39353;42.864;12.014;2023-01-26T07:31:13;96951.58;;;18.94;50.90
52653;BME280;39353;42.864;12.014;2023-01-26T07:33:40;96949.80;;;18.94;50.97
52653;BME280;39353;42.864;12.014;2023-01-26T07:36:21;96944.94;;;18.93;50.92
52653;BME280;39353;42.864;12.014;2023-01-26T07:38:48;96943.86;;;18.93;50.94
52653;BME280;39353;42.864;12.014;2023-01-26T07:41:29;96939.10;;;18.92;51.02
52653;BME280;39353;42.864;12.014;2023-01-26T07:44:11;96939.23;;;18.91;50.94
52653;BME280;39353;42.864;12.014;2023-01-26T07:46:38;96939.76;;;18.90;50.96
52653;BME280;39353;42.864;12.014;2023-01-26T07:49:19;96934.36;;;18.89;50.97
52653;BME280;39353;42.864;12.014;2023-01-26T07:51:47;96933.55;;;18.87;50.44
52653;BME280;39353;42.864;12.014;2023-01-26T07:54:28;96935.90;;;18.86;50.58
52653;BME280;39353;42.864;12.014;2023-01-26T07:56:57;96938.55;;;18.85;50.65
52653;BME280;39353;42.864;12.014;2023-01-26T07:59:39;96935.98;;;18.85;50.63
52653;BME280;39353;42.864;12.014;2023-01-26T08:02:20;96941.55;;;18.86;50.75
52653;BME280;39353;42.864;12.014;2023-01-26T08:04:47;96944.55;;;18.87;50.72
52653;BME280;39353;42.864;12.014;2023-01-26T08:07:15;96941.92;;;18.86;50.74
52653;BME280;39353;42.864;12.014;2023-01-26T08:09:55;96943.59;;;18.86;50.69
52653;BME280;39353;42.864;12.014;2023-01-26T08:12:26;96947.33;;;18.85;50.75
52653;BME280;39353;42.864;12.014;2023-01-26T08:15:07;96946.23;;;18.85;50.81
52653;BME280;39353;42.864;12.014;2023-01-26T08:17:49;96943.79;;;18.84;50.61
52653;BME280;39353;42.864;12.014;2023-01-26T08:20:30;96939.86;;;18.84;50.71
52653;BME280;39353;42.864;12.014;2023-01-26T08:22:57;96941.20;;;18.84;50.75
52653;BME280;39353;42.864;12.014;2023-01-26T08:25:39;96947.27;;;18.83;50.96
52653;BME280;39353;42.864;12.014;2023-01-26T08:28:07;96951.95;;;18.84;51.10
52653;BME280;39353;42.864;12.014;2023-01-26T08:30:34;96956.77;;;18.86;51.14
52653;BME280;39353;42.864;12.014;2023-01-26T08:33:16;96958.31;;;18.87;51.38
52653;BME280;39353;42.864;12.014;2023-01-26T08:36:01;96953.20;;;18.88;51.29
52653;BME280;39353;42.864;12.014;2023-01-26T08:38:30;96948.84;;;18.88;51.34
52653;BME280;39353;42.864;12.014;2023-01-26T08:41:11;96948.41;;;18.90;51.32
52653;BME280;39353;42.864;12.014;2023-01-26T08:43:39;96952.03;;;18.92;51.28
52653;BME280;39353;42.864;12.014;2023-01-26T08:46:07;96946.92;;;18.92;50.95
52653;BME280;39353;42.864;12.014;2023-01-26T08:48:48;96944.91;;;18.92;50.97
52653;BME280;39353;42.864;12.014;2023-01-26T08:51:17;96945.04;;;18.92;50.93
52653;BME280;39353;42.864;12.014;2023-01-26T08:53:44;96938.39;;;18.92;50.89
52653;BME280;39353;42.864;12.014;2023-01-26T08:56:12;96942.21;;;18.91;50.42
52653;BME280;39353;42.864;12.014;2023-01-26T08:58:54;96942.06;;;18.89;50.41
52653;BME280;39353;42.864;12.014;2023-01-26T09:01:21;96941.43;;;18.89;50.73
52653;BME280;39353;42.864;12.014;2023-01-26T09:04:03;96940.12;;;18.78;45.48
52653;BME280;39353;42.864;12.014;2023-01-26T09:06:30;96937.92;;;18.66;47.26
52653;BME280;39353;42.864;12.014;2023-01-26T09:09:13;96934.95;;;18.65;48.86
52653;BME280;39353;42.864;12.014;2023-01-26T09:11:40;96939.73;;;18.67;48.78
52653;BME280;39353;42.864;12.014;2023-01-26T09:14:21;96942.73;;;18.68;48.78
52653;BME280;39353;42.864;12.014;2023-01-26T09:16:50;96934.92;;;18.68;48.89
52653;BME280;39353;42.864;12.014;2023-01-26T09:19:33;96937.92;;;18.66;48.67
52653;BME280;39353;42.864;12.014;2023-01-26T09:22:02;96942.02;;;18.67;48.90
52653;BME280;39353;42.864;12.014;2023-01-26T09:24:30;96938.86;;;18.67;49.11
52653;BME280;39353;42.864;12.014;2023-01-26T09:27:11;96944.96;;;18.68;49.31
52653;BME280;39353;42.864;12.014;2023-01-26T09:29:52;96947.67;;;18.69;49.74
52653;BME280;39353;42.864;12.014;2023-01-26T09:32:33;96954.40;;;18.69;49.69
52653;BME280;39353;42.864;12.014;2023-01-26T09:38:33;96949.60;;;18.68;49.75
52653;BME280;39353;42.864;12.014;2023-01-26T09:44:25;96953.30;;;18.74;50.15
52653;BME280;39353;42.864;12.014;2023-01-26T09:50:10;96946.74;;;18.78;50.31
52653;BME280;39353;42.864;12.014;2023-01-26T09:53:24;96948.55;;;18.80;50.61
52653;BME280;39353;42.864;12.014;2023-01-26T09:56:03;96945.19;;;18.81;50.44
52653;BME280;39353;42.864;12.014;2023-01-26T09:58:39;96944.32;;;18.77;49.02
52653;BME280;39353;42.864;12.014;2023-01-26T10:01:30;96934.57;;;18.74;49.76
52653;BME280;39353;42.864;12.014;2023-01-26T10:04:36;96935.52;;;18.73;50.01
52653;BME280;39353;42.864;12.014;2023-01-26T10:07:14;96933.88;;;18.73;50.06
52653;BME280;39353;42.864;12.014;2023-01-26T10:10:03;96928.86;;;18.72;50.26
52653;BME280;39353;42.864;12.014;2023-01-26T10:12:48;96929.01;;;18.74;50.28
52653;BME280;39353;42.864;12.014;2023-01-26T10:18:03;96921.92;;;18.73;50.30
52653;BME280;39353;42.864;12.014;2023-01-26T10:20:53;96917.37;;;18.72;50.33
52653;BME280;39353;42.864;12.014;2023-01-26T10:23:32;96911.77;;;18.72;50.34
52653;BME280;39353;42.864;12.014;2023-01-26T10:30:17;96895.55;;;18.71;50.37
52653;BME280;39353;42.864;12.014;2023-01-26T10:32:51;96892.31;;;18.72;50.38
52653;BME280;39353;42.864;12.014;2023-01-26T10:35:22;96889.93;;;18.72;50.29
52653;BME280;39353;42.864;12.014;2023-01-26T10:41:03;96883.70;;;18.73;50.38
52653;BME280;39353;42.864;12.014;2023-01-26T10:46:39;96876.99;;;18.70;49.64
52653;BME280;39353;42.864;12.014;2023-01-26T10:52:27;96866.05;;;18.70;50.20
52653;BME280;39353;42.864;12.014;2023-01-26T10:55:19;96865.58;;;18.72;49.42
52653;BME280;39353;42.864;12.014;2023-01-26T10:58:00;96865.96;;;18.74;48.32
52653;BME280;39353;42.864;12.014;2023-01-26T11:00:31;96867.46;;;18.75;49.22
52653;BME280;39353;42.864;12.014;2023-01-26T11:03:18;96861.39;;;18.76;49.34
52653;BME280;39353;42.864;12.014;2023-01-26T11:06:13;96859.95;;;18.78;49.31
52653;BME280;39353;42.864;12.014;2023-01-26T11:09:08;96851.52;;;18.82;49.15
52653;BME280;39353;42.864;12.014;2023-01-26T11:11:36;96849.03;;;18.84;49.29
52653;BME280;39353;42.864;12.014;2023-01-26T11:14:18;96841.68;;;18.86;49.33
52653;BME280;39353;42.864;12.014;2023-01-26T11:21:16;96833.89;;;18.91;49.27
52653;BME280;39353;42.864;12.014;2023-01-26T11:24:09;96829.27;;;18.93;49.26
52653;BME280;39353;42.864;12.014;2023-01-26T11:35:06;96816.23;;;19.03;49.16
52653;BME280;39353;42.864;12.014;2023-01-26T11:37:43;96816.19;;;19.06;49.30
52653;BME280;39353;42.864;12.014;2023-01-26T11:43:20;96808.81;;;19.07;49.22
52653;BME280;39353;42.864;12.014;2023-01-26T12:00:51;96772.44;;;19.11;48.99
52653;BME280;39353;42.864;12.014;2023-01-26T12:03:32;96767.50;;;19.11;49.16
52653;BME280;39353;42.864;12.014;2023-01-26T12:06:06;96764.46;;;19.13;49.34
52653;BME280;39353;42.864;12.014;2023-01-26T12:08:53;96757.09;;;19.14;49.08
52653;BME280;39353;42.864;12.014;2023-01-26T12:11:33;96750.05;;;19.03;46.69
52653;BME280;39353;42.864;12.014;2023-01-26T12:17:33;96742.20;;;18.96;48.48
52653;BME280;39353;42.864;12.014;2023-01-26T12:26:15;96739.15;;;18.95;48.90
52653;BME280;39353;42.864;12.014;2023-01-26T12:29:27;96737.83;;;18.94;49.10
52653;BME280;39353;42.864;12.014;2023-01-26T12:32:13;96735.83;;;18.90;49.23
52653;BME280;39353;42.864;12.014;2023-01-26T12:34:41;96736.33;;;18.88;49.32
52653;BME280;39353;42.864;12.014;2023-01-26T12:45:56;96726.60;;;18.78;49.62
52653;BME280;39353;42.864;12.014;2023-01-26T12:48:47;96720.33;;;18.77;49.72
52653;BME280;39353;42.864;12.014;2023-01-26T12:51:40;96720.50;;;18.75;49.79
52653;BME280;39353;42.864;12.014;2023-01-26T12:54:42;96717.02;;;18.73;49.82
52653;BME280;39353;42.864;12.014;2023-01-26T12:57:39;96716.52;;;18.71;49.84
52653;BME280;39353;42.864;12.014;2023-01-26T13:00:30;96710.75;;;18.69;49.96
52653;BME280;39353;42.864;12.014;2023-01-26T13:03:05;96708.32;;;18.67;49.90
52653;BME280;39353;42.864;12.014;2023-01-26T13:12:12;96698.48;;;18.60;50.21
52653;BME280;39353;42.864;12.014;2023-01-26T13:14:58;96697.48;;;18.58;50.15
52653;BME280;39353;42.864;12.014;2023-01-26T13:18:01;96692.84;;;18.56;50.27
52653;BME280;39353;42.864;12.014;2023-01-26T13:20:48;96690.09;;;18.55;50.25
52653;BME280;39353;42.864;12.014;2023-01-26T13:23:42;96689.20;;;18.54;50.31
52653;BME280;39353;42.864;12.014;2023-01-26T13:26:16;96687.58;;;18.53;50.28
52653;BME280;39353;42.864;12.014;2023-01-26T13:28:46;96681.52;;;18.52;50.28
52653;BME280;39353;42.864;12.014;2023-01-26T13:31:32;96682.23;;;18.50;50.29
52653;BME280;39353;42.864;12.014;2023-01-26T13:34:06;96677.78;;;18.48;50.37
52653;BME280;39353;42.864;12.014;2023-01-26T13:36:50;96676.05;;;18.46;50.48
52653;BME280;39353;42.864;12.014;2023-01-26T13:39:35;96674.81;;;18.45;50.39
52653;BME280;39353;42.864;12.014;2023-01-26T13:42:22;96682.00;;;18.44;50.46
52653;BME280;39353;42.864;12.014;2023-01-26T13:45:26;96677.30;;;18.43;50.47
52653;BME280;39353;42.864;12.014;2023-01-26T13:47:57;96675.78;;;18.41;50.51
52653;BME280;39353;42.864;12.014;2023-01-26T13:50:39;96679.14;;;18.40;50.45
52653;BME280;39353;42.864;12.014;2023-01-26T13:53:38;96683.05;;;18.38;50.50
52653;BME280;39353;42.864;12.014;2023-01-26T14:01:46;96682.79;;;18.36;50.57
52653;BME280;39353;42.864;12.014;2023-01-26T14:04:30;96682.71;;;18.36;50.48
52653;BME280;39353;42.864;12.014;2023-01-26T14:09:44;96684.67;;;18.34;50.49
52653;BME280;39353;42.864;12.014;2023-01-26T14:12:29;96688.44;;;18.33;50.54
52653;BME280;39353;42.864;12.014;2023-01-26T14:15:02;96685.33;;;18.32;50.56
52653;BME280;39353;42.864;12.014;2023-01-26T14:18:01;96688.89;;;18.31;50.49
52653;BME280;39353;42.864;12.014;2023-01-26T14:20:43;96684.35;;;18.28;50.55
52653;BME280;39353;42.864;12.014;2023-01-26T14:23:33;96683.33;;;18.26;50.58
52653;BME280;39353;42.864;12.014;2023-01-26T14:26:29;96685.15;;;18.25;50.56
52653;BME280;39353;42.864;12.014;2023-01-26T14:28:59;96685.32;;;18.25;50.58
52653;BME280;39353;42.864;12.014;2023-01-26T14:31:27;96685.41;;;18.24;50.65
52653;BME280;39353;42.864;12.014;2023-01-26T14:34:09;96685.59;;;18.23;50.62
52653;BME280;39353;42.864;12.014;2023-01-26T14:37:05;96684.59;;;18.23;50.68
52653;BME280;39353;42.864;12.014;2023-01-26T14:39:48;96681.52;;;18.21;50.69
52653;BME280;39353;42.864;12.014;2023-01-26T14:42:29;96681.73;;;18.21;50.70
52653;BME280;39353;42.864;12.014;2023-01-26T14:44:56;96679.69;;;18.20;50.69
52653;BME280;39353;42.864;12.014;2023-01-26T14:47:39;96684.45;;;18.20;50.66
52653;BME280;39353;42.864;12.014;2023-01-26T14:50:27;96681.33;;;18.19;50.69
52653;BME280;39353;42.864;12.014;2023-01-26T14:52:58;96679.84;;;18.18;50.75
52653;BME280;39353;42.864;12.014;2023-01-26T14:55:29;96678.77;;;18.17;50.77
52653;BME280;39353;42.864;12.014;2023-01-26T14:58:18;96682.50;;;18.16;50.84
52653;BME280;39353;42.864;12.014;2023-01-26T15:00:49;96678.08;;;18.16;50.77
52653;BME280;39353;42.864;12.014;2023-01-26T15:03:35;96673.34;;;18.14;50.77
52653;BME280;39353;42.864;12.014;2023-01-26T15:06:16;96676.14;;;18.14;50.77
52653;BME280;39353;42.864;12.014;2023-01-26T15:08:56;96685.43;;;18.14;50.37
52653;BME280;39353;42.864;12.014;2023-01-26T15:15:10;96682.24;;;18.12;50.37
52653;BME280;39353;42.864;12.014;2023-01-26T15:18:01;96677.75;;;18.11;49.48
52653;BME280;39353;42.864;12.014;2023-01-26T15:23:27;96684.20;;;18.08;50.10
52653;BME280;39353;42.864;12.014;2023-01-26T15:26:20;96682.11;;;18.08;50.20
52653;BME280;39353;42.864;12.014;2023-01-26T15:29:28;96683.45;;;18.07;50.32
52653;BME280;39353;42.864;12.014;2023-01-26T15:31:58;96686.67;;;18.08;50.23
52653;BME280;39353;42.864;12.014;2023-01-26T15:34:39;96686.75;;;18.07;50.28
52653;BME280;39353;42.864;12.014;2023-01-26T15:37:31;96685.38;;;18.06;50.37
52653;BME280;39353;42.864;12.014;2023-01-26T15:40:14;96686.07;;;18.06;50.45
52653;BME280;39353;42.864;12.014;2023-01-26T15:42:42;96687.63;;;18.05;50.40
52653;BME280;39353;42.864;12.014;2023-01-26T15:45:25;96692.76;;;18.04;50.27
52653;BME280;39353;42.864;12.014;2023-01-26T15:47:53;96693.98;;;18.04;50.46
52653;BME280;39353;42.864;12.014;2023-01-26T15:50:35;96696.56;;;18.03;50.45